sensor_id;sensor_type;location;lat;lon;timestamp;P1;durP1;ratioP1;P2;durP2;ratioP2
21315;SDS011;10817;55.820;13.030;2024-02-21T00:05:13;72.00;;;16.17;;
21315;SDS011;10817;55.820;13.030;2024-02-21T00:07:40;74.90;;;16.80;;
21315;SDS011;10817;55.820;13.030;2024-02-21T00:10:07;65.18;;;16.40;;
21315;SDS011;10817;55.820;13.030;2024-02-21T00:12:35;75.30;;;16.27;;
21315;SDS011;10817;55.820;13.030;2024-02-21T00:15:02;66.30;;;16.33;;
21315;SDS011;10817;55.820;13.030;2024-02-21T00:17:29;70.45;;;16.77;;
21315;SDS011;10817;55.820;13.030;2024-02-21T00:19:56;73.78;;;17.05;;
21315;SDS011;10817;55.820;13.030;2024-02-21T00:22:24;58.88;;;14.38;;
21315;SDS011;10817;55.820;13.030;2024-02-21T00:24:53;71.93;;;15.55;;
21315;SDS011;10817;55.820;13.030;2024-02-21T00:27:20;58.17;;;15.07;;
21315;SDS011;10817;55.820;13.030;2024-02-21T00:29:47;51.42;;;14.85;;
21315;SDS011;10817;55.820;13.030;2024-02-21T00:32:13;58.35;;;15.15;;
21315;SDS011;10817;55.820;13.030;2024-02-21T00:34:40;76.03;;;16.42;;
21315;SDS011;10817;55.820;13.030;2024-02-21T00:37:07;68.20;;;17.27;;
21315;SDS011;10817;55.820;13.030;2024-02-21T00:39:35;59.45;;;15.18;;
21315;SDS011;10817;55.820;13.030;2024-02-21T00:42:03;57.47;;;16.58;;
21315;SDS011;10817;55.820;13.030;2024-02-21T00:44:32;68.53;;;17.00;;
21315;SDS011;10817;55.820;13.030;2024-02-21T00:46:59;74.70;;;17.60;;
21315;SDS011;10817;55.820;13.030;2024-02-21T00:49:26;60.95;;;17.23;;
21315;SDS011;10817;55.820;13.030;2024-02-21T00:51:53;81.20;;;18.75;;
21315;SDS011;10817;55.820;13.030;2024-02-21T00:54:20;69.25;;;16.98;;
21315;SDS011;10817;55.820;13.030;2024-02-21T00:56:49;56.70;;;15.27;;
21315;SDS011;10817;55.820;13.030;2024-02-21T00:59:16;77.07;;;17.90;;
21315;SDS011;10817;55.820;13.030;2024-02-21T01:01:43;72.30;;;17.50;;
21315;SDS011;10817;55.820;13.030;2024-02-21T01:04:09;52.33;;;17.17;;
21315;SDS011;10817;55.820;13.030;2024-02-21T01:06:36;72.20;;;17.45;;
21315;SDS011;10817;55.820;13.030;2024-02-21T01:09:06;56.17;;;18.33;;
21315;SDS011;10817;55.820;13.030;2024-02-21T01:11:33;74.00;;;18.30;;
21315;SDS011;10817;55.820;13.030;2024-02-21T01:14:06;80.45;;;19.42;;
21315;SDS011;10817;55.820;13.030;2024-02-21T01:16:34;69.60;;;18.90;;
21315;SDS011;10817;55.820;13.030;2024-02-21T01:19:03;81.60;;;20.10;;
21315;SDS011;10817;55.820;13.030;2024-02-21T01:21:30;67.25;;;19.88;;
21315;SDS011;10817;55.820;13.030;2024-02-21T01:23:57;70.80;;;22.60;;
21315;SDS011;10817;55.820;13.030;2024-02-21T01:26:24;60.72;;;21.10;;
21315;SDS011;10817;55.820;13.030;2024-02-21T01:28:51;78.45;;;21.38;;
21315;SDS011;10817;55.820;13.030;2024-02-21T01:31:19;69.70;;;21.85;;
21315;SDS011;10817;55.820;13.030;2024-02-21T01:33:46;88.25;;;22.05;;
21315;SDS011;10817;55.820;13.030;2024-02-21T01:36:13;70.45;;;22.20;;
21315;SDS011;10817;55.820;13.030;2024-02-21T01:38:40;63.95;;;21.27;;
21315;SDS011;10817;55.820;13.030;2024-02-21T01:41:07;73.20;;;21.42;;
21315;SDS011;10817;55.820;13.030;2024-02-21T01:43:34;76.20;;;21.63;;
21315;SDS011;10817;55.820;13.030;2024-02-21T01:46:00;71.43;;;21.98;;
21315;SDS011;10817;55.820;13.030;2024-02-21T01:48:29;68.05;;;22.50;;
21315;SDS011;10817;55.820;13.030;2024-02-21T01:50:57;68.88;;;20.48;;
21315;SDS011;10817;55.820;13.030;2024-02-21T01:53:25;80.22;;;24.42;;
21315;SDS011;10817;55.820;13.030;2024-02-21T01:55:56;77.80;;;22.38;;
21315;SDS011;10817;55.820;13.030;2024-02-21T01:58:23;89.15;;;22.70;;
21315;SDS011;10817;55.820;13.030;2024-02-21T02:00:50;79.20;;;23.13;;
21315;SDS011;10817;55.820;13.030;2024-02-21T02:03:17;80.35;;;24.80;;
21315;SDS011;10817;55.820;13.030;2024-02-21T02:05:46;84.85;;;25.02;;
21315;SDS011;10817;55.820;13.030;2024-02-21T02:08:13;87.07;;;24.33;;
21315;SDS011;10817;55.820;13.030;2024-02-21T02:10:41;74.70;;;25.52;;
21315;SDS011;10817;55.820;13.030;2024-02-21T02:13:08;92.53;;;25.50;;
21315;SDS011;10817;55.820;13.030;2024-02-21T02:15:39;86.15;;;25.05;;
21315;SDS011;10817;55.820;13.030;2024-02-21T02:18:06;89.57;;;24.88;;
21315;SDS011;10817;55.820;13.030;2024-02-21T02:20:33;98.57;;;26.63;;
21315;SDS011;10817;55.820;13.030;2024-02-21T02:23:03;82.35;;;25.88;;
21315;SDS011;10817;55.820;13.030;2024-02-21T02:25:34;87.15;;;26.17;;
21315;SDS011;10817;55.820;13.030;2024-02-21T02:28:02;88.20;;;26.83;;
21315;SDS011;10817;55.820;13.030;2024-02-21T02:30:29;100.00;;;28.33;;
21315;SDS011;10817;55.820;13.030;2024-02-21T02:32:58;90.47;;;27.05;;
21315;SDS011;10817;55.820;13.030;2024-02-21T02:35:25;90.95;;;25.85;;
21315;SDS011;10817;55.820;13.030;2024-02-21T02:37:52;107.95;;;27.33;;
21315;SDS011;10817;55.820;13.030;2024-02-21T02:40:19;113.47;;;27.17;;
21315;SDS011;10817;55.820;13.030;2024-02-21T02:42:47;94.80;;;28.17;;
21315;SDS011;10817;55.820;13.030;2024-02-21T02:45:14;90.95;;;28.63;;
21315;SDS011;10817;55.820;13.030;2024-02-21T02:47:41;88.95;;;27.23;;
21315;SDS011;10817;55.820;13.030;2024-02-21T02:50:11;108.90;;;28.80;;
21315;SDS011;10817;55.820;13.030;2024-02-21T02:52:38;96.90;;;28.83;;
21315;SDS011;10817;55.820;13.030;2024-02-21T02:55:05;99.75;;;28.65;;
21315;SDS011;10817;55.820;13.030;2024-02-21T02:57:32;102.93;;;29.88;;
21315;SDS011;10817;55.820;13.030;2024-02-21T03:00:01;96.43;;;28.17;;
21315;SDS011;10817;55.820;13.030;2024-02-21T03:02:29;91.10;;;28.33;;
21315;SDS011;10817;55.820;13.030;2024-02-21T03:04:56;102.57;;;29.40;;
21315;SDS011;10817;55.820;13.030;2024-02-21T03:07:24;93.95;;;28.50;;
21315;SDS011;10817;55.820;13.030;2024-02-21T03:09:51;100.43;;;29.17;;
21315;SDS011;10817;55.820;13.030;2024-02-21T03:12:19;90.57;;;28.92;;
21315;SDS011;10817;55.820;13.030;2024-02-21T03:14:52;97.20;;;27.85;;
21315;SDS011;10817;55.820;13.030;2024-02-21T03:17:20;97.32;;;28.00;;
21315;SDS011;10817;55.820;13.030;2024-02-21T03:19:48;85.10;;;27.88;;
21315;SDS011;10817;55.820;13.030;2024-02-21T03:22:15;105.47;;;28.15;;
21315;SDS011;10817;55.820;13.030;2024-02-21T03:24:42;91.72;;;27.02;;
21315;SDS011;10817;55.820;13.030;2024-02-21T03:27:09;93.13;;;26.00;;
21315;SDS011;10817;55.820;13.030;2024-02-21T03:29:36;99.00;;;27.63;;
21315;SDS011;10817;55.820;13.030;2024-02-21T03:32:03;86.75;;;26.13;;
21315;SDS011;10817;55.820;13.030;2024-02-21T03:34:31;93.28;;;25.77;;
21315;SDS011;10817;55.820;13.030;2024-02-21T03:36:58;89.22;;;25.67;;
21315;SDS011;10817;55.820;13.030;2024-02-21T03:39:25;96.70;;;28.73;;
21315;SDS011;10817;55.820;13.030;2024-02-21T03:41:52;112.82;;;27.58;;
21315;SDS011;10817;55.820;13.030;2024-02-21T03:44:19;84.40;;;23.60;;
21315;SDS011;10817;55.820;13.030;2024-02-21T03:46:46;90.13;;;26.17;;
21315;SDS011;10817;55.820;13.030;2024-02-21T03:49:12;105.22;;;28.25;;
21315;SDS011;10817;55.820;13.030;2024-02-21T03:51:41;96.75;;;27.35;;
21315;SDS011;10817;55.820;13.030;2024-02-21T03:54:07;85.07;;;25.67;;
21315;SDS011;10817;55.820;13.030;2024-02-21T03:56:36;71.38;;;23.75;;
21315;SDS011;10817;55.820;13.030;2024-02-21T03:59:04;84.13;;;24.83;;
21315;SDS011;10817;55.820;13.030;2024-02-21T04:01:31;93.68;;;23.00;;
21315;SDS011;10817;55.820;13.030;2024-02-21T04:03:58;80.22;;;23.77;;
21315;SDS011;10817;55.820;13.030;2024-02-21T04:06:25;77.85;;;22.08;;
21315;SDS011;10817;55.820;13.030;2024-02-21T04:08:53;74.78;;;22.10;;
21315;SDS011;10817;55.820;13.030;2024-02-21T04:11:20;82.75;;;23.15;;
21315;SDS011;10817;55.820;13.030;2024-02-21T04:13:47;75.45;;;22.63;;
21315;SDS011;10817;55.820;13.030;2024-02-21T04:16:15;84.20;;;23.40;;
21315;SDS011;10817;55.820;13.030;2024-02-21T04:18:42;90.80;;;22.98;;
21315;SDS011;10817;55.820;13.030;2024-02-21T04:21:09;72.57;;;21.30;;
21315;SDS011;10817;55.820;13.030;2024-02-21T04:23:36;86.45;;;23.10;;
21315;SDS011;10817;55.820;13.030;2024-02-21T04:26:04;74.57;;;23.33;;
21315;SDS011;10817;55.820;13.030;2024-02-21T04:28:32;80.82;;;23.13;;
21315;SDS011;10817;55.820;13.030;2024-02-21T04:30:58;78.30;;;22.92;;
21315;SDS011;10817;55.820;13.030;2024-02-21T04:33:25;61.80;;;20.95;;
21315;SDS011;10817;55.820;13.030;2024-02-21T04:35:52;72.45;;;20.88;;
21315;SDS011;10817;55.820;13.030;2024-02-21T04:38:20;80.65;;;21.70;;
21315;SDS011;10817;55.820;13.030;2024-02-21T04:40:47;81.30;;;21.27;;
21315;SDS011;10817;55.820;13.030;2024-02-21T04:43:15;72.07;;;20.13;;
21315;SDS011;10817;55.820;13.030;2024-02-21T04:45:42;64.40;;;19.77;;
21315;SDS011;10817;55.820;13.030;2024-02-21T04:48:09;70.72;;;21.10;;
21315;SDS011;10817;55.820;13.030;2024-02-21T04:50:36;77.90;;;21.95;;
21315;SDS011;10817;55.820;13.030;2024-02-21T04:53:03;75.65;;;20.75;;
21315;SDS011;10817;55.820;13.030;2024-02-21T04:55:30;83.88;;;22.85;;
21315;SDS011;10817;55.820;13.030;2024-02-21T04:57:56;73.88;;;20.02;;
21315;SDS011;10817;55.820;13.030;2024-02-21T05:00:25;65.85;;;20.02;;
21315;SDS011;10817;55.820;13.030;2024-02-21T05:02:51;47.50;;;14.90;;
21315;SDS011;10817;55.820;13.030;2024-02-21T05:05:18;49.88;;;16.55;;
21315;SDS011;10817;55.820;13.030;2024-02-21T05:07:45;33.80;;;12.05;;
21315;SDS011;10817;55.820;13.030;2024-02-21T05:10:12;47.63;;;14.32;;
21315;SDS011;10817;55.820;13.030;2024-02-21T05:12:39;41.97;;;13.02;;
21315;SDS011;10817;55.820;13.030;2024-02-21T05:15:06;48.15;;;11.95;;
21315;SDS011;10817;55.820;13.030;2024-02-21T05:17:35;47.22;;;12.40;;
21315;SDS011;10817;55.820;13.030;2024-02-21T05:20:01;38.13;;;11.90;;
21315;SDS011;10817;55.820;13.030;2024-02-21T05:22:29;35.00;;;11.15;;
21315;SDS011;10817;55.820;13.030;2024-02-21T05:24:55;24.83;;;9.98;;
21315;SDS011;10817;55.820;13.030;2024-02-21T05:27:22;22.00;;;8.30;;
21315;SDS011;10817;55.820;13.030;2024-02-21T05:29:49;21.27;;;8.18;;
21315;SDS011;10817;55.820;13.030;2024-02-21T05:32:16;15.15;;;7.22;;
21315;SDS011;10817;55.820;13.030;2024-02-21T05:34:44;23.05;;;6.47;;
21315;SDS011;10817;55.820;13.030;2024-02-21T05:37:14;19.00;;;6.03;;
21315;SDS011;10817;55.820;13.030;2024-02-21T05:39:41;13.25;;;5.30;;
21315;SDS011;10817;55.820;13.030;2024-02-21T05:42:08;23.17;;;5.65;;
21315;SDS011;10817;55.820;13.030;2024-02-21T05:44:35;15.48;;;5.57;;
21315;SDS011;10817;55.820;13.030;2024-02-21T05:47:01;13.82;;;5.38;;
21315;SDS011;10817;55.820;13.030;2024-02-21T05:49:28;12.05;;;5.05;;
21315;SDS011;10817;55.820;13.030;2024-02-21T05:51:57;12.25;;;4.53;;
21315;SDS011;10817;55.820;13.030;2024-02-21T05:54:24;15.93;;;5.35;;
21315;SDS011;10817;55.820;13.030;2024-02-21T05:56:50;15.73;;;5.30;;
21315;SDS011;10817;55.820;13.030;2024-02-21T05:59:18;10.60;;;4.35;;
21315;SDS011;10817;55.820;13.030;2024-02-21T06:01:45;14.57;;;5.03;;
21315;SDS011;10817;55.820;13.030;2024-02-21T06:04:21;15.55;;;4.70;;
21315;SDS011;10817;55.820;13.030;2024-02-21T06:06:48;8.88;;;4.60;;
21315;SDS011;10817;55.820;13.030;2024-02-21T06:09:16;17.27;;;5.35;;
21315;SDS011;10817;55.820;13.030;2024-02-21T06:11:43;13.50;;;4.57;;
21315;SDS011;10817;55.820;13.030;2024-02-21T06:14:11;11.15;;;4.05;;
21315;SDS011;10817;55.820;13.030;2024-02-21T06:16:38;19.85;;;3.78;;
21315;SDS011;10817;55.820;13.030;2024-02-21T06:19:05;12.35;;;3.40;;
21315;SDS011;10817;55.820;13.030;2024-02-21T06:21:31;10.82;;;3.45;;
21315;SDS011;10817;55.820;13.030;2024-02-21T06:23:58;13.52;;;3.72;;
21315;SDS011;10817;55.820;13.030;2024-02-21T06:26:26;20.88;;;3.50;;
21315;SDS011;10817;55.820;13.030;2024-02-21T06:28:53;13.65;;;3.83;;
21315;SDS011;10817;55.820;13.030;2024-02-21T06:31:20;15.05;;;3.47;;
21315;SDS011;10817;55.820;13.030;2024-02-21T06:33:47;15.68;;;4.07;;
21315;SDS011;10817;55.820;13.030;2024-02-21T06:36:14;13.98;;;3.95;;
21315;SDS011;10817;55.820;13.030;2024-02-21T06:38:41;15.25;;;4.13;;
21315;SDS011;10817;55.820;13.030;2024-02-21T06:41:14;10.68;;;3.15;;
21315;SDS011;10817;55.820;13.030;2024-02-21T06:43:42;16.23;;;3.20;;
21315;SDS011;10817;55.820;13.030;2024-02-21T06:46:09;13.60;;;3.78;;
21315;SDS011;10817;55.820;13.030;2024-02-21T06:48:36;12.05;;;3.15;;
21315;SDS011;10817;55.820;13.030;2024-02-21T06:51:03;16.25;;;3.60;;
21315;SDS011;10817;55.820;13.030;2024-02-21T06:53:30;13.77;;;4.07;;
21315;SDS011;10817;55.820;13.030;2024-02-21T06:55:57;12.43;;;3.20;;
21315;SDS011;10817;55.820;13.030;2024-02-21T06:58:24;15.10;;;3.67;;
21315;SDS011;10817;55.820;13.030;2024-02-21T07:00:52;20.23;;;3.33;;
21315;SDS011;10817;55.820;13.030;2024-02-21T07:03:19;25.52;;;4.53;;
21315;SDS011;10817;55.820;13.030;2024-02-21T07:05:46;11.98;;;3.30;;
21315;SDS011;10817;55.820;13.030;2024-02-21T07:08:13;9.60;;;3.63;;
21315;SDS011;10817;55.820;13.030;2024-02-21T07:10:40;24.08;;;3.70;;
21315;SDS011;10817;55.820;13.030;2024-02-21T07:13:07;17.58;;;3.30;;
21315;SDS011;10817;55.820;13.030;2024-02-21T07:15:34;13.50;;;3.13;;
21315;SDS011;10817;55.820;13.030;2024-02-21T07:18:03;16.88;;;3.38;;
21315;SDS011;10817;55.820;13.030;2024-02-21T07:20:30;18.92;;;3.58;;
21315;SDS011;10817;55.820;13.030;2024-02-21T07:22:58;13.15;;;2.50;;
21315;SDS011;10817;55.820;13.030;2024-02-21T07:25:25;23.30;;;3.35;;
21315;SDS011;10817;55.820;13.030;2024-02-21T07:27:52;16.95;;;3.40;;
21315;SDS011;10817;55.820;13.030;2024-02-21T07:30:19;15.95;;;3.17;;
21315;SDS011;10817;55.820;13.030;2024-02-21T07:32:48;12.50;;;2.97;;
21315;SDS011;10817;55.820;13.030;2024-02-21T07:35:16;18.90;;;2.70;;
21315;SDS011;10817;55.820;13.030;2024-02-21T07:37:43;11.07;;;2.70;;
21315;SDS011;10817;55.820;13.030;2024-02-21T07:40:12;23.88;;;2.75;;
21315;SDS011;10817;55.820;13.030;2024-02-21T07:42:39;20.73;;;2.85;;
21315;SDS011;10817;55.820;13.030;2024-02-21T07:45:06;18.92;;;3.05;;
21315;SDS011;10817;55.820;13.030;2024-02-21T07:47:34;18.80;;;3.05;;
21315;SDS011;10817;55.820;13.030;2024-02-21T07:50:01;13.65;;;2.33;;
21315;SDS011;10817;55.820;13.030;2024-02-21T07:52:29;14.80;;;3.38;;
21315;SDS011;10817;55.820;13.030;2024-02-21T07:54:56;15.88;;;2.55;;
21315;SDS011;10817;55.820;13.030;2024-02-21T07:57:23;16.83;;;2.58;;
21315;SDS011;10817;55.820;13.030;2024-02-21T07:59:50;17.77;;;3.10;;
21315;SDS011;10817;55.820;13.030;2024-02-21T08:02:17;12.05;;;2.08;;
21315;SDS011;10817;55.820;13.030;2024-02-21T08:04:44;12.77;;;1.90;;
21315;SDS011;10817;55.820;13.030;2024-02-21T08:07:11;9.30;;;2.10;;
21315;SDS011;10817;55.820;13.030;2024-02-21T08:09:40;11.98;;;2.78;;
21315;SDS011;10817;55.820;13.030;2024-02-21T08:12:07;16.38;;;3.15;;
21315;SDS011;10817;55.820;13.030;2024-02-21T08:14:34;22.10;;;3.22;;
21315;SDS011;10817;55.820;13.030;2024-02-21T08:17:01;13.25;;;2.60;;
21315;SDS011;10817;55.820;13.030;2024-02-21T08:19:28;14.32;;;2.60;;
21315;SDS011;10817;55.820;13.030;2024-02-21T08:21:56;14.63;;;3.38;;
21315;SDS011;10817;55.820;13.030;2024-02-21T08:24:23;17.23;;;2.67;;
21315;SDS011;10817;55.820;13.030;2024-02-21T08:26:51;21.13;;;2.75;;
21315;SDS011;10817;55.820;13.030;2024-02-21T08:29:18;16.13;;;2.63;;
21315;SDS011;10817;55.820;13.030;2024-02-21T08:31:45;15.40;;;2.92;;
21315;SDS011;10817;55.820;13.030;2024-02-21T08:34:12;13.52;;;2.85;;
21315;SDS011;10817;55.820;13.030;2024-02-21T08:36:39;18.10;;;2.75;;
21315;SDS011;10817;55.820;13.030;2024-02-21T08:39:05;26.20;;;3.13;;
21315;SDS011;10817;55.820;13.030;2024-02-21T08:41:34;16.02;;;3.58;;
21315;SDS011;10817;55.820;13.030;2024-02-21T08:44:02;12.82;;;3.03;;
21315;SDS011;10817;55.820;13.030;2024-02-21T08:46:29;19.48;;;3.35;;
21315;SDS011;10817;55.820;13.030;2024-02-21T08:48:56;17.10;;;2.63;;
21315;SDS011;10817;55.820;13.030;2024-02-21T08:51:23;14.15;;;2.13;;
21315;SDS011;10817;55.820;13.030;2024-02-21T08:53:50;14.30;;;2.58;;
21315;SDS011;10817;55.820;13.030;2024-02-21T08:56:18;18.73;;;2.60;;
21315;SDS011;10817;55.820;13.030;2024-02-21T08:58:45;22.58;;;3.03;;
21315;SDS011;10817;55.820;13.030;2024-02-21T09:01:14;17.95;;;3.13;;
21315;SDS011;10817;55.820;13.030;2024-02-21T09:03:40;12.23;;;2.33;;
21315;SDS011;10817;55.820;13.030;2024-02-21T09:06:10;16.58;;;2.70;;
21315;SDS011;10817;55.820;13.030;2024-02-21T09:08:38;13.07;;;2.70;;
21315;SDS011;10817;55.820;13.030;2024-02-21T09:11:06;28.17;;;3.83;;
21315;SDS011;10817;55.820;13.030;2024-02-21T09:13:33;21.25;;;3.25;;
21315;SDS011;10817;55.820;13.030;2024-02-21T09:16:00;18.85;;;3.83;;
21315;SDS011;10817;55.820;13.030;2024-02-21T09:18:28;19.20;;;2.65;;
21315;SDS011;10817;55.820;13.030;2024-02-21T09:20:55;21.05;;;2.95;;
21315;SDS011;10817;55.820;13.030;2024-02-21T09:23:23;22.75;;;3.88;;
21315;SDS011;10817;55.820;13.030;2024-02-21T09:25:50;26.10;;;3.17;;
21315;SDS011;10817;55.820;13.030;2024-02-21T09:28:17;18.77;;;3.63;;
21315;SDS011;10817;55.820;13.030;2024-02-21T09:30:44;20.88;;;3.00;;
21315;SDS011;10817;55.820;13.030;2024-02-21T09:33:11;24.75;;;3.15;;
21315;SDS011;10817;55.820;13.030;2024-02-21T09:35:40;19.60;;;3.47;;
21315;SDS011;10817;55.820;13.030;2024-02-21T09:38:07;25.40;;;3.92;;
21315;SDS011;10817;55.820;13.030;2024-02-21T09:40:34;26.92;;;4.53;;
21315;SDS011;10817;55.820;13.030;2024-02-21T09:43:04;18.27;;;3.42;;
21315;SDS011;10817;55.820;13.030;2024-02-21T09:45:32;9.93;;;2.42;;
21315;SDS011;10817;55.820;13.030;2024-02-21T09:48:05;11.23;;;2.42;;
21315;SDS011;10817;55.820;13.030;2024-02-21T09:50:47;24.17;;;3.83;;
21315;SDS011;10817;55.820;13.030;2024-02-21T09:53:16;23.88;;;2.42;;
21315;SDS011;10817;55.820;13.030;2024-02-21T09:55:46;12.43;;;2.42;;
21315;SDS011;10817;55.820;13.030;2024-02-21T09:58:14;18.67;;;3.22;;
21315;SDS011;10817;55.820;13.030;2024-02-21T10:00:41;12.75;;;2.67;;
21315;SDS011;10817;55.820;13.030;2024-02-21T10:03:08;17.95;;;2.92;;
21315;SDS011;10817;55.820;13.030;2024-02-21T10:05:35;24.77;;;3.40;;
21315;SDS011;10817;55.820;13.030;2024-02-21T10:08:05;22.60;;;3.42;;
21315;SDS011;10817;55.820;13.030;2024-02-21T10:10:40;20.38;;;3.08;;
21315;SDS011;10817;55.820;13.030;2024-02-21T10:13:09;24.90;;;3.85;;
21315;SDS011;10817;55.820;13.030;2024-02-21T10:15:35;25.40;;;3.50;;
21315;SDS011;10817;55.820;13.030;2024-02-21T10:18:03;20.75;;;3.40;;
21315;SDS011;10817;55.820;13.030;2024-02-21T10:20:31;30.38;;;3.00;;
21315;SDS011;10817;55.820;13.030;2024-02-21T10:23:02;30.42;;;3.97;;
21315;SDS011;10817;55.820;13.030;2024-02-21T10:25:34;18.58;;;2.92;;
21315;SDS011;10817;55.820;13.030;2024-02-21T10:28:03;32.50;;;4.22;;
21315;SDS011;10817;55.820;13.030;2024-02-21T10:30:30;18.35;;;2.85;;
21315;SDS011;10817;55.820;13.030;2024-02-21T10:32:57;22.30;;;2.45;;
21315;SDS011;10817;55.820;13.030;2024-02-21T10:35:27;18.02;;;2.58;;
21315;SDS011;10817;55.820;13.030;2024-02-21T10:37:55;16.48;;;3.75;;
21315;SDS011;10817;55.820;13.030;2024-02-21T10:40:23;22.02;;;3.08;;
21315;SDS011;10817;55.820;13.030;2024-02-21T10:42:53;19.60;;;2.95;;
21315;SDS011;10817;55.820;13.030;2024-02-21T10:45:25;20.40;;;3.25;;
21315;SDS011;10817;55.820;13.030;2024-02-21T10:47:56;19.10;;;2.90;;
21315;SDS011;10817;55.820;13.030;2024-02-21T10:50:28;18.80;;;2.85;;
21315;SDS011;10817;55.820;13.030;2024-02-21T10:53:06;18.15;;;2.95;;
21315;SDS011;10817;55.820;13.030;2024-02-21T10:55:41;15.48;;;2.88;;
21315;SDS011;10817;55.820;13.030;2024-02-21T10:58:18;11.48;;;2.45;;
21315;SDS011;10817;55.820;13.030;2024-02-21T11:00:45;10.65;;;2.22;;
21315;SDS011;10817;55.820;13.030;2024-02-21T11:03:12;17.38;;;2.47;;
21315;SDS011;10817;55.820;13.030;2024-02-21T11:05:39;14.10;;;2.97;;
21315;SDS011;10817;55.820;13.030;2024-02-21T11:08:07;13.13;;;2.20;;
21315;SDS011;10817;55.820;13.030;2024-02-21T11:10:36;12.77;;;2.33;;
21315;SDS011;10817;55.820;13.030;2024-02-21T11:13:06;10.15;;;2.55;;
21315;SDS011;10817;55.820;13.030;2024-02-21T11:15:35;12.27;;;2.47;;
21315;SDS011;10817;55.820;13.030;2024-02-21T11:18:02;15.10;;;2.92;;
21315;SDS011;10817;55.820;13.030;2024-02-21T11:20:32;15.93;;;2.45;;
21315;SDS011;10817;55.820;13.030;2024-02-21T11:23:00;19.48;;;2.50;;
21315;SDS011;10817;55.820;13.030;2024-02-21T11:25:27;15.85;;;2.75;;
21315;SDS011;10817;55.820;13.030;2024-02-21T11:27:59;10.63;;;2.30;;
21315;SDS011;10817;55.820;13.030;2024-02-21T11:30:26;8.27;;;1.95;;
21315;SDS011;10817;55.820;13.030;2024-02-21T11:32:59;15.77;;;2.95;;
21315;SDS011;10817;55.820;13.030;2024-02-21T11:35:30;12.32;;;2.35;;
21315;SDS011;10817;55.820;13.030;2024-02-21T11:38:07;13.45;;;2.80;;
21315;SDS011;10817;55.820;13.030;2024-02-21T11:40:35;14.68;;;2.30;;
21315;SDS011;10817;55.820;13.030;2024-02-21T11:43:04;13.73;;;2.08;;
21315;SDS011;10817;55.820;13.030;2024-02-21T11:45:31;16.02;;;2.55;;
21315;SDS011;10817;55.820;13.030;2024-02-21T11:48:00;18.35;;;2.47;;
21315;SDS011;10817;55.820;13.030;2024-02-21T11:50:28;12.07;;;2.22;;
21315;SDS011;10817;55.820;13.030;2024-02-21T11:52:56;10.50;;;2.67;;
21315;SDS011;10817;55.820;13.030;2024-02-21T11:55:24;10.70;;;2.13;;
21315;SDS011;10817;55.820;13.030;2024-02-21T11:57:51;8.45;;;1.80;;
21315;SDS011;10817;55.820;13.030;2024-02-21T12:00:18;13.93;;;2.38;;
21315;SDS011;10817;55.820;13.030;2024-02-21T12:02:46;17.00;;;2.78;;
21315;SDS011;10817;55.820;13.030;2024-02-21T12:05:15;9.02;;;2.05;;
21315;SDS011;10817;55.820;13.030;2024-02-21T12:07:42;11.65;;;2.35;;
21315;SDS011;10817;55.820;13.030;2024-02-21T12:10:10;14.20;;;2.10;;
21315;SDS011;10817;55.820;13.030;2024-02-21T12:12:37;12.00;;;2.25;;
21315;SDS011;10817;55.820;13.030;2024-02-21T12:15:04;15.85;;;2.95;;
21315;SDS011;10817;55.820;13.030;2024-02-21T12:17:32;14.63;;;2.70;;
21315;SDS011;10817;55.820;13.030;2024-02-21T12:20:00;10.80;;;2.00;;
21315;SDS011;10817;55.820;13.030;2024-02-21T12:22:30;11.18;;;2.40;;
21315;SDS011;10817;55.820;13.030;2024-02-21T12:24:58;6.63;;;1.80;;
21315;SDS011;10817;55.820;13.030;2024-02-21T12:27:26;8.98;;;2.13;;
21315;SDS011;10817;55.820;13.030;2024-02-21T12:29:53;9.18;;;2.80;;
21315;SDS011;10817;55.820;13.030;2024-02-21T12:32:20;12.43;;;2.33;;
21315;SDS011;10817;55.820;13.030;2024-02-21T12:34:47;15.02;;;2.67;;
21315;SDS011;10817;55.820;13.030;2024-02-21T12:37:14;6.55;;;1.92;;
21315;SDS011;10817;55.820;13.030;2024-02-21T12:39:42;9.18;;;1.90;;
21315;SDS011;10817;55.820;13.030;2024-02-21T12:42:09;15.48;;;2.38;;
21315;SDS011;10817;55.820;13.030;2024-02-21T12:44:37;11.18;;;2.10;;
21315;SDS011;10817;55.820;13.030;2024-02-21T12:47:04;11.25;;;2.15;;
21315;SDS011;10817;55.820;13.030;2024-02-21T12:49:31;10.15;;;2.83;;
21315;SDS011;10817;55.820;13.030;2024-02-21T12:51:58;10.75;;;3.08;;
21315;SDS011;10817;55.820;13.030;2024-02-21T12:54:25;8.95;;;2.53;;
21315;SDS011;10817;55.820;13.030;2024-02-21T12:56:53;18.27;;;2.65;;
21315;SDS011;10817;55.820;13.030;2024-02-21T12:59:20;10.50;;;2.30;;
21315;SDS011;10817;55.820;13.030;2024-02-21T13:01:47;9.70;;;2.22;;
21315;SDS011;10817;55.820;13.030;2024-02-21T13:04:14;14.02;;;2.63;;
21315;SDS011;10817;55.820;13.030;2024-02-21T13:06:40;8.80;;;1.90;;
21315;SDS011;10817;55.820;13.030;2024-02-21T13:09:07;6.63;;;1.98;;
21315;SDS011;10817;55.820;13.030;2024-02-21T13:11:36;13.07;;;2.30;;
21315;SDS011;10817;55.820;13.030;2024-02-21T13:14:04;11.43;;;2.65;;
21315;SDS011;10817;55.820;13.030;2024-02-21T13:16:31;6.20;;;1.92;;
21315;SDS011;10817;55.820;13.030;2024-02-21T13:18:59;9.45;;;1.80;;
21315;SDS011;10817;55.820;13.030;2024-02-21T13:21:26;8.90;;;1.65;;
21315;SDS011;10817;55.820;13.030;2024-02-21T13:23:53;9.70;;;1.90;;
21315;SDS011;10817;55.820;13.030;2024-02-21T13:26:21;9.95;;;2.20;;
21315;SDS011;10817;55.820;13.030;2024-02-21T13:28:48;16.95;;;2.55;;
21315;SDS011;10817;55.820;13.030;2024-02-21T13:31:16;9.68;;;2.25;;
21315;SDS011;10817;55.820;13.030;2024-02-21T13:33:43;11.20;;;2.13;;
21315;SDS011;10817;55.820;13.030;2024-02-21T13:36:10;8.40;;;2.42;;
21315;SDS011;10817;55.820;13.030;2024-02-21T13:38:37;9.07;;;1.92;;
21315;SDS011;10817;55.820;13.030;2024-02-21T13:41:04;8.73;;;2.05;;
21315;SDS011;10817;55.820;13.030;2024-02-21T13:43:32;14.48;;;3.10;;
21315;SDS011;10817;55.820;13.030;2024-02-21T13:46:00;7.63;;;1.98;;
21315;SDS011;10817;55.820;13.030;2024-02-21T13:48:31;12.63;;;2.55;;
21315;SDS011;10817;55.820;13.030;2024-02-21T13:50:59;11.90;;;2.33;;
21315;SDS011;10817;55.820;13.030;2024-02-21T13:53:27;8.10;;;2.05;;
21315;SDS011;10817;55.820;13.030;2024-02-21T13:55:54;11.20;;;2.00;;
21315;SDS011;10817;55.820;13.030;2024-02-21T13:58:21;9.40;;;2.20;;
21315;SDS011;10817;55.820;13.030;2024-02-21T14:00:47;14.20;;;2.63;;
21315;SDS011;10817;55.820;13.030;2024-02-21T14:03:15;15.13;;;2.78;;
21315;SDS011;10817;55.820;13.030;2024-02-21T14:05:43;15.52;;;2.58;;
21315;SDS011;10817;55.820;13.030;2024-02-21T14:08:10;11.00;;;2.10;;
21315;SDS011;10817;55.820;13.030;2024-02-21T14:10:43;8.85;;;2.05;;
21315;SDS011;10817;55.820;13.030;2024-02-21T14:13:10;17.05;;;2.55;;
21315;SDS011;10817;55.820;13.030;2024-02-21T14:15:37;9.80;;;2.03;;
21315;SDS011;10817;55.820;13.030;2024-02-21T14:18:06;12.50;;;2.70;;
21315;SDS011;10817;55.820;13.030;2024-02-21T14:20:34;14.55;;;2.58;;
21315;SDS011;10817;55.820;13.030;2024-02-21T14:23:03;14.55;;;2.92;;
21315;SDS011;10817;55.820;13.030;2024-02-21T14:25:33;17.95;;;2.60;;